sensor_id;sensor_type;location;lat;lon;timestamp;pressure;altitude;pressure_sealevel;temperature;humidity
5812;BME280;2932;52.400;9.558;2023-04-01T00:01:54;98841.75;;;14.33;74.43
5812;BME280;2932;52.400;9.558;2023-04-01T00:04:20;98841.31;;;14.72;74.10
5812;BME280;2932;52.400;9.558;2023-04-01T00:06:46;98840.50;;;14.41;74.24
5812;BME280;2932;52.400;9.558;2023-04-01T00:09:12;98839.91;;;14.19;74.98
5812;BME280;2932;52.400;9.558;2023-04-01T00:11:38;98834.34;;;14.19;74.45
5812;BME280;2932;52.400;9.558;2023-04-01T00:14:03;98837.00;;;14.33;74.45
5812;BME280;2932;52.400;9.558;2023-04-01T00:16:29;98843.28;;;14.41;74.18
5812;BME280;2932;52.400;9.558;2023-04-01T00:18:55;98837.84;;;14.27;74.63
5812;BME280;2932;52.400;9.558;2023-04-01T00:21:21;98847.13;;;14.51;74.09
5812;BME280;2932;52.400;9.558;2023-04-01T00:23:47;98836.25;;;14.29;74.34
5812;BME280;2932;52.400;9.558;2023-04-01T00:26:13;98840.50;;;14.41;73.60
5812;BME280;2932;52.400;9.558;2023-04-01T00:28:40;98836.09;;;14.40;74.28
5812;BME280;2932;52.400;9.558;2023-04-01T00:31:08;98839.41;;;14.31;73.99
5812;BME280;2932;52.400;9.558;2023-04-01T00:33:33;98844.56;;;13.95;74.86
5812;BME280;2932;52.400;9.558;2023-04-01T00:36:16;98844.25;;;13.83;75.52
5812;BME280;2932;52.400;9.558;2023-04-01T00:38:42;98841.75;;;13.99;75.38
5812;BME280;2932;52.400;9.558;2023-04-01T00:41:10;98843.13;;;13.77;75.67
5812;BME280;2932;52.400;9.558;2023-04-01T00:43:39;98838.84;;;13.65;76.07
5812;BME280;2932;52.400;9.558;2023-04-01T00:46:05;98834.94;;;14.00;75.86
5812;BME280;2932;52.400;9.558;2023-04-01T00:48:33;98833.63;;;13.74;76.31
5812;BME280;2932;52.400;9.558;2023-04-01T00:51:07;98836.44;;;13.71;76.47
5812;BME280;2932;52.400;9.558;2023-04-01T00:53:34;98838.34;;;13.77;76.13
5812;BME280;2932;52.400;9.558;2023-04-01T00:56:06;98845.72;;;13.98;75.69
5812;BME280;2932;52.400;9.558;2023-04-01T00:58:35;98845.44;;;13.85;76.30
5812;BME280;2932;52.400;9.558;2023-04-01T01:01:02;98843.03;;;13.87;76.13
5812;BME280;2932;52.400;9.558;2023-04-01T01:03:28;98848.69;;;13.77;75.74
5812;BME280;2932;52.400;9.558;2023-04-01T01:06:10;98842.38;;;13.73;75.84
5812;BME280;2932;52.400;9.558;2023-04-01T01:08:48;98853.81;;;13.82;75.72
5812;BME280;2932;52.400;9.558;2023-04-01T01:11:22;98847.63;;;14.05;75.17
5812;BME280;2932;52.400;9.558;2023-04-01T01:14:01;98845.47;;;13.82;75.76
5812;BME280;2932;52.400;9.558;2023-04-01T01:16:36;98847.31;;;13.54;76.28
5812;BME280;2932;52.400;9.558;2023-04-01T01:22:36;98841.25;;;13.63;76.60
5812;BME280;2932;52.400;9.558;2023-04-01T01:27:38;98841.97;;;13.74;76.57
5812;BME280;2932;52.400;9.558;2023-04-01T01:30:14;98834.84;;;13.69;76.50
5812;BME280;2932;52.400;9.558;2023-04-01T01:33:24;98839.13;;;13.81;76.01
5812;BME280;2932;52.400;9.558;2023-04-01T01:35:54;98835.47;;;13.88;75.70
5812;BME280;2932;52.400;9.558;2023-04-01T01:38:24;98834.31;;;13.85;75.67
5812;BME280;2932;52.400;9.558;2023-04-01T01:40:52;98838.06;;;14.06;75.28
5812;BME280;2932;52.400;9.558;2023-04-01T01:43:24;98835.06;;;13.89;75.73
5812;BME280;2932;52.400;9.558;2023-04-01T01:45:54;98837.53;;;13.80;75.67
5812;BME280;2932;52.400;9.558;2023-04-01T01:48:22;98831.94;;;13.84;75.64
5812;BME280;2932;52.400;9.558;2023-04-01T01:50:48;98833.75;;;14.01;75.13
5812;BME280;2932;52.400;9.558;2023-04-01T01:53:15;98838.50;;;14.00;74.82
5812;BME280;2932;52.400;9.558;2023-04-01T01:55:43;98830.78;;;14.19;74.08
5812;BME280;2932;52.400;9.558;2023-04-01T01:58:13;98833.13;;;14.24;74.03
5812;BME280;2932;52.400;9.558;2023-04-01T02:00:43;98838.44;;;14.08;74.21
5812;BME280;2932;52.400;9.558;2023-04-01T02:03:10;98832.72;;;14.25;73.74
5812;BME280;2932;52.400;9.558;2023-04-01T02:05:37;98836.34;;;14.19;73.90
5812;BME280;2932;52.400;9.558;2023-04-01T02:08:43;98835.25;;;14.09;73.91
5812;BME280;2932;52.400;9.558;2023-04-01T02:11:12;98838.81;;;14.47;72.77
5812;BME280;2932;52.400;9.558;2023-04-01T02:16:08;98841.88;;;14.22;73.41
5812;BME280;2932;52.400;9.558;2023-04-01T02:18:37;98838.84;;;14.06;73.44
5812;BME280;2932;52.400;9.558;2023-04-01T02:21:04;98843.59;;;14.09;73.27
5812;BME280;2932;52.400;9.558;2023-04-01T02:23:33;98840.56;;;14.34;72.96
5812;BME280;2932;52.400;9.558;2023-04-01T02:26:01;98845.81;;;13.87;74.06
5812;BME280;2932;52.400;9.558;2023-04-01T02:28:28;98843.16;;;14.14;72.84
5812;BME280;2932;52.400;9.558;2023-04-01T02:30:55;98841.47;;;14.24;72.81
5812;BME280;2932;52.400;9.558;2023-04-01T02:33:22;98843.78;;;13.91;73.14
5812;BME280;2932;52.400;9.558;2023-04-01T02:35:48;98843.47;;;14.23;73.17
5812;BME280;2932;52.400;9.558;2023-04-01T02:38:14;98844.81;;;14.08;72.79
5812;BME280;2932;52.400;9.558;2023-04-01T02:40:49;98847.44;;;13.85;73.13
5812;BME280;2932;52.400;9.558;2023-04-01T02:43:15;98837.88;;;13.86;73.60
5812;BME280;2932;52.400;9.558;2023-04-01T02:45:41;98840.50;;;14.00;73.21
5812;BME280;2932;52.400;9.558;2023-04-01T02:48:07;98847.72;;;13.97;72.92
5812;BME280;2932;52.400;9.558;2023-04-01T02:50:33;98847.41;;;14.26;72.50
5812;BME280;2932;52.400;9.558;2023-04-01T02:52:58;98853.00;;;14.22;72.52
5812;BME280;2932;52.400;9.558;2023-04-01T02:55:23;98846.84;;;14.00;73.30
5812;BME280;2932;52.400;9.558;2023-04-01T02:57:49;98851.56;;;14.07;73.02
5812;BME280;2932;52.400;9.558;2023-04-01T03:00:15;98850.22;;;14.22;72.92
5812;BME280;2932;52.400;9.558;2023-04-01T03:02:40;98851.38;;;14.25;72.92
5812;BME280;2932;52.400;9.558;2023-04-01T03:05:06;98850.38;;;14.46;72.08
5812;BME280;2932;52.400;9.558;2023-04-01T03:07:32;98852.56;;;14.61;71.85
5812;BME280;2932;52.400;9.558;2023-04-01T03:09:57;98850.50;;;14.35;71.92
5812;BME280;2932;52.400;9.558;2023-04-01T03:12:23;98846.75;;;14.49;72.04
5812;BME280;2932;52.400;9.558;2023-04-01T03:14:48;98857.78;;;14.59;71.80
5812;BME280;2932;52.400;9.558;2023-04-01T03:17:13;98852.00;;;14.43;71.89
5812;BME280;2932;52.400;9.558;2023-04-01T03:19:39;98859.44;;;14.84;71.06
5812;BME280;2932;52.400;9.558;2023-04-01T03:22:04;98858.16;;;14.61;71.56
5812;BME280;2932;52.400;9.558;2023-04-01T03:24:30;98859.22;;;14.71;71.65
5812;BME280;2932;52.400;9.558;2023-04-01T03:26:55;98855.50;;;14.81;71.43
5812;BME280;2932;52.400;9.558;2023-04-01T03:29:20;98855.69;;;14.67;71.39
5812;BME280;2932;52.400;9.558;2023-04-01T03:31:46;98862.06;;;14.67;71.75
5812;BME280;2932;52.400;9.558;2023-04-01T03:34:11;98851.94;;;14.47;71.81
5812;BME280;2932;52.400;9.558;2023-04-01T03:36:37;98851.88;;;14.54;71.71
5812;BME280;2932;52.400;9.558;2023-04-01T03:39:02;98863.34;;;14.59;72.33
5812;BME280;2932;52.400;9.558;2023-04-01T03:41:28;98864.50;;;14.62;71.75
5812;BME280;2932;52.400;9.558;2023-04-01T03:43:54;98861.25;;;14.67;72.07
5812;BME280;2932;52.400;9.558;2023-04-01T03:46:20;98850.25;;;14.19;72.89
5812;BME280;2932;52.400;9.558;2023-04-01T03:48:46;98864.50;;;14.62;71.74
5812;BME280;2932;52.400;9.558;2023-04-01T03:51:11;98867.78;;;14.53;71.80
5812;BME280;2932;52.400;9.558;2023-04-01T03:53:37;98865.97;;;14.74;71.42
5812;BME280;2932;52.400;9.558;2023-04-01T03:56:06;98868.06;;;14.62;72.15
5812;BME280;2932;52.400;9.558;2023-04-01T03:58:32;98865.28;;;14.62;71.92
5812;BME280;2932;52.400;9.558;2023-04-01T04:00:57;98862.19;;;14.87;71.42
5812;BME280;2932;52.400;9.558;2023-04-01T04:03:23;98873.41;;;14.80;71.66
5812;BME280;2932;52.400;9.558;2023-04-01T04:05:49;98873.47;;;14.77;71.94
5812;BME280;2932;52.400;9.558;2023-04-01T04:08:15;98874.72;;;14.72;71.83
5812;BME280;2932;52.400;9.558;2023-04-01T04:10:40;98877.72;;;14.85;71.64
5812;BME280;2932;52.400;9.558;2023-04-01T04:13:06;98869.75;;;14.87;71.50
5812;BME280;2932;52.400;9.558;2023-04-01T04:15:32;98865.34;;;14.89;71.17
5812;BME280;2932;52.400;9.558;2023-04-01T04:17:57;98868.50;;;14.91;71.67
5812;BME280;2932;52.400;9.558;2023-04-01T04:20:22;98878.28;;;15.03;71.02
5812;BME280;2932;52.400;9.558;2023-04-01T04:22:48;98869.88;;;15.07;70.97
5812;BME280;2932;52.400;9.558;2023-04-01T04:25:13;98881.91;;;15.00;71.16
5812;BME280;2932;52.400;9.558;2023-04-01T04:27:39;98876.34;;;14.32;73.02
5812;BME280;2932;52.400;9.558;2023-04-01T04:30:06;98880.28;;;14.72;71.99
5812;BME280;2932;52.400;9.558;2023-04-01T04:32:31;98880.19;;;14.45;72.93
5812;BME280;2932;52.400;9.558;2023-04-01T04:34:57;98885.78;;;14.79;72.10
5812;BME280;2932;52.400;9.558;2023-04-01T04:37:22;98883.81;;;14.76;72.05
5812;BME280;2932;52.400;9.558;2023-04-01T04:39:47;98887.09;;;14.67;72.53
5812;BME280;2932;52.400;9.558;2023-04-01T04:42:13;98889.44;;;14.73;72.64
5812;BME280;2932;52.400;9.558;2023-04-01T04:44:39;98896.06;;;14.82;72.39
5812;BME280;2932;52.400;9.558;2023-04-01T04:47:04;98888.66;;;14.72;72.80
5812;BME280;2932;52.400;9.558;2023-04-01T04:49:30;98890.25;;;14.70;72.89
5812;BME280;2932;52.400;9.558;2023-04-01T04:51:56;98889.19;;;14.60;72.82
5812;BME280;2932;52.400;9.558;2023-04-01T04:54:21;98897.25;;;14.81;72.95
5812;BME280;2932;52.400;9.558;2023-04-01T04:56:47;98898.19;;;14.71;72.52
5812;BME280;2932;52.400;9.558;2023-04-01T04:59:12;98899.00;;;14.72;73.01
5812;BME280;2932;52.400;9.558;2023-04-01T05:01:38;98892.84;;;14.84;72.50
5812;BME280;2932;52.400;9.558;2023-04-01T05:04:03;98900.38;;;14.53;72.95
5812;BME280;2932;52.400;9.558;2023-04-01T05:06:28;98903.53;;;14.55;73.23
5812;BME280;2932;52.400;9.558;2023-04-01T05:08:55;98904.81;;;14.81;72.70
5812;BME280;2932;52.400;9.558;2023-04-01T05:11:20;98902.34;;;14.56;73.20
5812;BME280;2932;52.400;9.558;2023-04-01T05:13:46;98907.50;;;14.57;73.50
5812;BME280;2932;52.400;9.558;2023-04-01T05:16:18;98899.75;;;14.38;73.76
5812;BME280;2932;52.400;9.558;2023-04-01T05:18:44;98903.47;;;14.62;73.13
5812;BME280;2932;52.400;9.558;2023-04-01T05:21:11;98906.03;;;14.46;73.31
5812;BME280;2932;52.400;9.558;2023-04-01T05:23:37;98907.47;;;14.61;72.98
5812;BME280;2932;52.400;9.558;2023-04-01T05:26:04;98901.50;;;14.59;72.96
5812;BME280;2932;52.400;9.558;2023-04-01T05:28:30;98912.66;;;14.59;72.94
5812;BME280;2932;52.400;9.558;2023-04-01T05:30:58;98914.44;;;14.76;72.76
5812;BME280;2932;52.400;9.558;2023-04-01T05:33:24;98903.75;;;14.71;72.72
5812;BME280;2932;52.400;9.558;2023-04-01T05:35:49;98916.09;;;14.70;72.45
5812;BME280;2932;52.400;9.558;2023-04-01T05:38:14;98913.91;;;14.85;72.38
5812;BME280;2932;52.400;9.558;2023-04-01T05:40:40;98916.00;;;14.40;73.63
5812;BME280;2932;52.400;9.558;2023-04-01T05:43:05;98909.31;;;14.33;73.58
5812;BME280;2932;52.400;9.558;2023-04-01T05:45:30;98911.69;;;14.35;73.78
5812;BME280;2932;52.400;9.558;2023-04-01T05:47:55;98916.16;;;14.66;72.85
5812;BME280;2932;52.400;9.558;2023-04-01T05:50:21;98916.41;;;14.42;73.48
5812;BME280;2932;52.400;9.558;2023-04-01T05:52:46;98911.59;;;14.80;72.43
5812;BME280;2932;52.400;9.558;2023-04-01T05:55:12;98915.00;;;14.94;71.60
5812;BME280;2932;52.400;9.558;2023-04-01T05:57:37;98923.91;;;14.82;72.08
5812;BME280;2932;52.400;9.558;2023-04-01T06:00:03;98926.47;;;15.00;71.69
5812;BME280;2932;52.400;9.558;2023-04-01T06:02:29;98921.22;;;15.06;71.61
5812;BME280;2932;52.400;9.558;2023-04-01T06:05:03;98934.78;;;15.04;71.70
5812;BME280;2932;52.400;9.558;2023-04-01T06:07:35;98928.09;;;14.97;71.61
5812;BME280;2932;52.400;9.558;2023-04-01T06:10:00;98931.50;;;15.12;71.42
5812;BME280;2932;52.400;9.558;2023-04-01T06:12:36;98927.13;;;15.11;71.85
5812;BME280;2932;52.400;9.558;2023-04-01T06:17:52;98940.75;;;15.32;71.37
5812;BME280;2932;52.400;9.558;2023-04-01T06:23:14;98938.97;;;15.19;71.27
5812;BME280;2932;52.400;9.558;2023-04-01T06:25:44;98937.38;;;15.48;71.04
5812;BME280;2932;52.400;9.558;2023-04-01T06:54:03;98957.53;;;15.59;70.88
5812;BME280;2932;52.400;9.558;2023-04-01T06:56:30;98965.31;;;15.41;71.22
5812;BME280;2932;52.400;9.558;2023-04-01T06:58:58;98963.56;;;15.54;70.87
5812;BME280;2932;52.400;9.558;2023-04-01T07:01:55;98964.59;;;15.37;71.21
5812;BME280;2932;52.400;9.558;2023-04-01T07:04:29;98963.47;;;15.31;71.42
5812;BME280;2932;52.400;9.558;2023-04-01T07:06:59;98968.94;;;15.38;70.89
5812;BME280;2932;52.400;9.558;2023-04-01T07:09:34;98972.00;;;15.78;70.21
5812;BME280;2932;52.400;9.558;2023-04-01T07:12:06;98970.78;;;15.79;70.17
5812;BME280;2932;52.400;9.558;2023-04-01T07:14:37;98977.78;;;15.90;69.78
5812;BME280;2932;52.400;9.558;2023-04-01T07:17:15;98974.88;;;15.71;70.39
5812;BME280;2932;52.400;9.558;2023-04-01T07:25:07;98989.41;;;15.58;70.82
5812;BME280;2932;52.400;9.558;2023-04-01T07:27:36;98986.72;;;15.78;70.03
5812;BME280;2932;52.400;9.558;2023-04-01T07:30:06;98993.00;;;15.55;70.57
5812;BME280;2932;52.400;9.558;2023-04-01T07:32:57;98990.03;;;15.70;70.41
5812;BME280;2932;52.400;9.558;2023-04-01T07:35:31;98994.63;;;15.56;70.71
5812;BME280;2932;52.400;9.558;2023-04-01T07:43:22;99003.94;;;15.43;71.21
5812;BME280;2932;52.400;9.558;2023-04-01T07:49:04;99008.81;;;15.65;70.16
5812;BME280;2932;52.400;9.558;2023-04-01T07:51:40;99009.66;;;15.62;70.39
5812;BME280;2932;52.400;9.558;2023-04-01T07:54:19;99007.09;;;15.75;70.01
5812;BME280;2932;52.400;9.558;2023-04-01T08:00:16;99023.03;;;15.75;69.20
5812;BME280;2932;52.400;9.558;2023-04-01T08:05:41;99022.28;;;16.24;69.01
5812;BME280;2932;52.400;9.558;2023-04-01T08:15:58;99024.31;;;15.97;69.54
5812;BME280;2932;52.400;9.558;2023-04-01T08:21:27;99037.75;;;15.75;69.72
5812;BME280;2932;52.400;9.558;2023-04-01T08:23:56;99045.25;;;15.82;69.40
5812;BME280;2932;52.400;9.558;2023-04-01T08:28:54;99048.81;;;15.82;69.11
5812;BME280;2932;52.400;9.558;2023-04-01T08:33:47;99042.66;;;16.45;67.93
5812;BME280;2932;52.400;9.558;2023-04-01T08:39:03;99051.00;;;15.98;68.53
5812;BME280;2932;52.400;9.558;2023-04-01T08:49:40;99057.94;;;15.86;68.54
5812;BME280;2932;52.400;9.558;2023-04-01T08:54:48;99057.91;;;16.13;69.00
5812;BME280;2932;52.400;9.558;2023-04-01T08:57:36;99058.97;;;16.23;69.20
5812;BME280;2932;52.400;9.558;2023-04-01T09:06:28;99064.75;;;16.36;67.47
5812;BME280;2932;52.400;9.558;2023-04-01T09:11:58;99071.97;;;16.06;68.07
5812;BME280;2932;52.400;9.558;2023-04-01T09:22:37;99074.34;;;16.58;66.89
5812;BME280;2932;52.400;9.558;2023-04-01T09:25:21;99077.84;;;16.65;66.74
5812;BME280;2932;52.400;9.558;2023-04-01T09:35:49;99082.47;;;16.49;66.33
5812;BME280;2932;52.400;9.558;2023-04-01T09:38:22;99094.50;;;16.46;67.46
5812;BME280;2932;52.400;9.558;2023-04-01T09:41:06;99096.88;;;16.20;68.77
5812;BME280;2932;52.400;9.558;2023-04-01T09:52:41;99105.47;;;15.42;70.90
5812;BME280;2932;52.400;9.558;2023-04-01T09:58:50;99123.94;;;15.62;70.05
5812;BME280;2932;52.400;9.558;2023-04-01T10:01:47;99119.19;;;15.93;69.72
5812;BME280;2932;52.400;9.558;2023-04-01T10:26:37;99132.38;;;16.97;68.14
5812;BME280;2932;52.400;9.558;2023-04-01T10:29:34;99143.72;;;16.86;67.15
5812;BME280;2932;52.400;9.558;2023-04-01T10:38:07;99138.41;;;16.42;67.50
5812;BME280;2932;52.400;9.558;2023-04-01T10:44:18;99140.53;;;16.61;67.70
5812;BME280;2932;52.400;9.558;2023-04-01T11:21:13;99162.69;;;17.65;62.72
5812;BME280;2932;52.400;9.558;2023-04-01T11:26:52;99170.72;;;17.83;62.47
5812;BME280;2932;52.400;9.558;2023-04-01T11:32:34;99174.41;;;18.36;61.19
5812;BME280;2932;52.400;9.558;2023-04-01T11:35:27;99178.00;;;18.36;61.12
5812;BME280;2932;52.400;9.558;2023-04-01T11:38:07;99175.69;;;17.95;62.92
5812;BME280;2932;52.400;9.558;2023-04-01T11:46:39;99184.63;;;18.06;62.25
5812;BME280;2932;52.400;9.558;2023-04-01T12:14:26;99209.84;;;17.86;62.99
5812;BME280;2932;52.400;9.558;2023-04-01T12:31:03;99224.31;;;18.01;63.25
5812;BME280;2932;52.400;9.558;2023-04-01T12:39:50;99237.16;;;17.79;63.91
5812;BME280;2932;52.400;9.558;2023-04-01T12:45:35;99243.53;;;17.79;64.23
5812;BME280;2932;52.400;9.558;2023-04-01T12:51:20;99248.34;;;17.79;64.69
5812;BME280;2932;52.400;9.558;2023-04-01T13:19:19;99285.75;;;18.48;63.56
5812;BME280;2932;52.400;9.558;2023-04-01T13:25:03;99280.44;;;18.73;63.51
5812;BME280;2932;52.400;9.558;2023-04-01T13:27:40;99284.31;;;18.20;64.64
5812;BME280;2932;52.400;9.558;2023-04-01T13:32:53;99287.19;;;18.16;64.61
5812;BME280;2932;52.400;9.558;2023-04-01T13:43:31;99303.25;;;17.46;63.95
5812;BME280;2932;52.400;9.558;2023-04-01T13:46:16;99296.22;;;17.11;63.88
5812;BME280;2932;52.400;9.558;2023-04-01T14:05:50;99351.63;;;16.55;68.96
5812;BME280;2932;52.400;9.558;2023-04-01T14:11:13;99361.75;;;16.04;70.78
5812;BME280;2932;52.400;9.558;2023-04-01T14:16:55;99376.66;;;15.90;71.66
5812;BME280;2932;52.400;9.558;2023-04-01T14:19:50;99379.47;;;15.87;70.68
5812;BME280;2932;52.400;9.558;2023-04-01T14:31:17;99393.75;;;15.37;71.41
5812;BME280;2932;52.400;9.558;2023-04-01T14:36:43;99405.63;;;14.79;72.27
5812;BME280;2932;52.400;9.558;2023-04-01T14:50:25;99430.38;;;14.45;73.09
5812;BME280;2932;52.400;9.558;2023-04-01T14:55:31;99435.94;;;14.59;72.43
5812;BME280;2932;52.400;9.558;2023-04-01T14:58:19;99448.28;;;14.29;73.15
5812;BME280;2932;52.400;9.558;2023-04-01T15:03:30;99444.72;;;14.29;72.83
5812;BME280;2932;52.400;9.558;2023-04-01T15:12:26;99466.16;;;14.39;71.51
5812;BME280;2932;52.400;9.558;2023-04-01T15:28:54;99507.09;;;14.10;72.50
5812;BME280;2932;52.400;9.558;2023-04-01T15:31:27;99507.09;;;14.07;72.31
5812;BME280;2932;52.400;9.558;2023-04-01T15:34:30;99527.34;;;13.79;72.14
5812;BME280;2932;52.400;9.558;2023-04-01T15:50:11;99538.03;;;13.55;72.06
5812;BME280;2932;52.400;9.558;2023-04-01T16:03:52;99574.28;;;14.26;70.25
5812;BME280;2932;52.400;9.558;2023-04-01T16:14:22;99586.53;;;13.83;71.01
5812;BME280;2932;52.400;9.558;2023-04-01T16:17:20;99590.91;;;13.84;70.64
5812;BME280;2932;52.400;9.558;2023-04-01T16:20:19;99602.44;;;13.86;70.69
5812;BME280;2932;52.400;9.558;2023-04-01T16:23:04;99609.94;;;13.78;69.99
5812;BME280;2932;52.400;9.558;2023-04-01T16:25:44;99622.84;;;13.31;71.40
5812;BME280;2932;52.400;9.558;2023-04-01T16:28:29;99616.59;;;13.49;71.22
5812;BME280;2932;52.400;9.558;2023-04-01T16:36:41;99645.47;;;13.30;71.74
5812;BME280;2932;52.400;9.558;2023-04-01T16:41:49;99656.41;;;13.05;71.22
5812;BME280;2932;52.400;9.558;2023-04-01T16:44:22;99656.13;;;13.21;70.64
5812;BME280;2932;52.400;9.558;2023-04-01T16:46:56;99664.13;;;13.29;71.26
5812;BME280;2932;52.400;9.558;2023-04-01T16:49:40;99669.13;;;13.10;70.94
5812;BME280;2932;52.400;9.558;2023-04-01T16:55:02;99686.63;;;13.14;71.14
5812;BME280;2932;52.400;9.558;2023-04-01T17:00:30;99705.50;;;13.45;70.38
5812;BME280;2932;52.400;9.558;2023-04-01T17:06:10;99716.44;;;13.17;70.12
5812;BME280;2932;52.400;9.558;2023-04-01T17:11:26;99719.31;;;12.87;70.26
5812;BME280;2932;52.400;9.558;2023-04-01T17:14:28;99712.78;;;12.65;70.26
5812;BME280;2932;52.400;9.558;2023-04-01T17:17:23;99727.84;;;12.64;70.62
5812;BME280;2932;52.400;9.558;2023-04-01T17:22:55;99747.41;;;12.41;70.59
5812;BME280;2932;52.400;9.558;2023-04-01T17:25:41;99757.72;;;12.41;70.50
5812;BME280;2932;52.400;9.558;2023-04-01T17:28:27;99751.59;;;12.61;70.04
5812;BME280;2932;52.400;9.558;2023-04-01T17:31:04;99768.88;;;12.48;70.16
5812;BME280;2932;52.400;9.558;2023-04-01T17:33:42;99768.97;;;12.55;69.95
5812;BME280;2932;52.400;9.558;2023-04-01T17:42:15;99782.16;;;12.28;69.95
5812;BME280;2932;52.400;9.558;2023-04-01T17:58:46;99817.53;;;12.08;70.41
5812;BME280;2932;52.400;9.558;2023-04-01T18:01:46;99828.03;;;12.22;70.27
5812;BME280;2932;52.400;9.558;2023-04-01T18:04:40;99842.16;;;12.13;69.52
5812;BME280;2932;52.400;9.558;2023-04-01T18:07:42;99846.38;;;12.03;70.39
5812;BME280;2932;52.400;9.558;2023-04-01T18:10:41;99855.75;;;11.92;70.41
5812;BME280;2932;52.400;9.558;2023-04-01T18:21:23;99882.38;;;12.00;70.84
5812;BME280;2932;52.400;9.558;2023-04-01T18:24:03;99887.91;;;11.96;70.66
5812;BME280;2932;52.400;9.558;2023-04-01T18:26:33;99895.28;;;11.89;70.64
5812;BME280;2932;52.400;9.558;2023-04-01T18:29:11;99897.56;;;12.10;70.12
5812;BME280;2932;52.400;9.558;2023-04-01T18:31:42;99914.25;;;12.13;69.77
5812;BME280;2932;52.400;9.558;2023-04-01T18:37:17;99929.25;;;12.09;70.10
5812;BME280;2932;52.400;9.558;2023-04-01T18:39:52;99935.06;;;12.26;69.35
5812;BME280;2932;52.400;9.558;2023-04-01T18:45:32;99945.09;;;12.34;69.63
5812;BME280;2932;52.400;9.558;2023-04-01T18:50:55;99957.22;;;12.00;70.06
5812;BME280;2932;52.400;9.558;2023-04-01T19:06:55;99982.72;;;11.63;70.62
5812;BME280;2932;52.400;9.558;2023-04-01T19:17:05;100013.84;;;10.76;72.83
5812;BME280;2932;52.400;9.558;2023-04-01T19:25:13;100032.06;;;11.35;70.74
5812;BME280;2932;52.400;9.558;2023-04-01T19:27:50;100035.69;;;11.39;70.51
5812;BME280;2932;52.400;9.558;2023-04-01T19:33:06;100028.13;;;11.55;69.76
5812;BME280;2932;52.400;9.558;2023-04-01T19:36:09;100047.28;;;11.25;69.94
5812;BME280;2932;52.400;9.558;2023-04-01T19:38:43;100051.28;;;11.28;69.50
5812;BME280;2932;52.400;9.558;2023-04-01T19:41:36;100062.81;;;11.30;70.11
5812;BME280;2932;52.400;9.558;2023-04-01T20:06:51;100114.41;;;10.84;70.50
5812;BME280;2932;52.400;9.558;2023-04-01T20:12:48;100134.56;;;11.00;69.96
5812;BME280;2932;52.400;9.558;2023-04-01T20:18:01;100152.09;;;10.57;71.02
5812;BME280;2932;52.400;9.558;2023-04-01T20:20:29;100156.22;;;10.47;70.91
5812;BME280;2932;52.400;9.558;2023-04-01T20:23:21;100164.88;;;10.61;71.51
5812;BME280;2932;52.400;9.558;2023-04-01T20:25:57;100172.06;;;10.82;70.56
5812;BME280;2932;52.400;9.558;2023-04-01T20:31:36;100183.69;;;10.72;70.19
5812;BME280;2932;52.400;9.558;2023-04-01T20:37:12;100197.50;;;10.87;70.16
5812;BME280;2932;52.400;9.558;2023-04-01T20:42:49;100198.22;;;10.53;70.91
5812;BME280;2932;52.400;9.558;2023-04-01T20:53:12;100219.94;;;10.66;70.17
5812;BME280;2932;52.400;9.558;2023-04-01T21:07:26;100254.66;;;10.64;69.97
5812;BME280;2932;52.400;9.558;2023-04-01T21:10:00;100258.31;;;10.84;69.94
5812;BME280;2932;52.400;9.558;2023-04-01T21:15:11;100275.00;;;10.87;69.33
5812;BME280;2932;52.400;9.558;2023-04-01T21:28:32;100298.63;;;10.25;70.48
5812;BME280;2932;52.400;9.558;2023-04-01T21:33:55;100319.50;;;10.11;69.99
5812;BME280;2932;52.400;9.558;2023-04-01T21:45:00;100343.88;;;10.33;69.86
5812;BME280;2932;52.400;9.558;2023-04-01T22:01:31;100379.31;;;10.99;72.35
5812;BME280;2932;52.400;9.558;2023-04-01T22:18:02;100406.94;;;10.83;68.39
5812;BME280;2932;52.400;9.558;2023-04-01T22:20:32;100405.59;;;10.49;68.52
5812;BME280;2932;52.400;9.558;2023-04-01T22:26:09;100413.25;;;10.16;68.98
5812;BME280;2932;52.400;9.558;2023-04-01T22:31:23;100431.78;;;10.40;69.35
5812;BME280;2932;52.400;9.558;2023-04-01T22:37:10;100439.75;;;10.17;68.96
5812;BME280;2932;52.400;9.558;2023-04-01T22:40:02;100441.81;;;10.08;69.45
5812;BME280;2932;52.400;9.558;2023-04-01T22:42:56;100449.88;;;10.00;69.05
5812;BME280;2932;52.400;9.558;2023-04-01T22:56:28;100468.88;;;10.14;68.53
5812;BME280;2932;52.400;9.558;2023-04-01T23:01:34;100479.25;;;9.56;70.28
5812;BME280;2932;52.400;9.558;2023-04-01T23:04:04;100489.81;;;9.54;70.41
5812;BME280;2932;52.400;9.558;2023-04-01T23:06:35;100489.31;;;9.40;69.77
5812;BME280;2932;52.400;9.558;2023-04-01T23:11:37;100499.69;;;9.43;70.06
5812;BME280;2932;52.400;9.558;2023-04-01T23:16:56;100517.47;;;9.79;68.91
5812;BME280;2932;52.400;9.558;2023-04-01T23:27:31;100528.41;;;9.75;67.97
5812;BME280;2932;52.400;9.558;2023-04-01T23:30:00;100533.72;;;9.80;67.66
5812;BME280;2932;52.400;9.558;2023-04-01T23:32:25;100539.47;;;9.87;67.64
5812;BME280;2932;52.400;9.558;2023-04-01T23:34:54;100545.78;;;9.76;67.34
5812;BME280;2932;52.400;9.558;2023-04-01T23:37:21;100545.78;;;9.76;67.51
5812;BME280;2932;52.400;9.558;2023-04-01T23:39:50;100564.72;;;9.53;68.14
5812;BME280;2932;52.400;9.558;2023-04-01T23:42:28;100561.75;;;9.70;67.69
5812;BME280;2932;52.400;9.558;2023-04-01T23:45:03;100567.81;;;9.96;67.30
5812;BME280;2932;52.400;9.558;2023-04-01T23:47:32;100574.69;;;9.78;67.28
5812;BME280;2932;52.400;9.558;2023-04-01T23:50:00;100574.50;;;9.50;67.62
5812;BME280;2932;52.400;9.558;2023-04-01T23:52:29;100582.28;;;9.15;67.33
5812;BME280;2932;52.400;9.558;2023-04-01T23:55:08;100584.41;;;9.30;67.34
5812;BME280;2932;52.400;9.558;2023-04-01T23:57:37;100596.91;;;9.16;67.37
